Time;durP1;ratioP1;P1;durP2;ratioP2;P2;SDS_P1;SDS_P2;PMS_P1;PMS_P2;Temp;Humidity;BMP_temperature;BMP_pressure;BME280_temperature;BME280_humidity;BME280_pressure;Samples;Min_cycle;Max_cycle;Signal;HPM_P1;HPM_P2
2020/12/28 00:01:58;;;;;;;8.13;7.53;;;2.90;99.90;;;;;;5012165;28;20465;-68
2020/12/28 00:04:25;;;;;;;8.03;7.33;;;2.80;99.90;;;;;;5012990;28;20980;-68
2020/12/28 00:06:51;;;;;;;8.37;7.67;;;2.90;99.90;;;;;;5005704;28;20464;-68
2020/12/28 00:09:17;;;;;;;8.07;7.40;;;2.80;99.90;;;;;;5013365;28;20853;-68
2020/12/28 00:11:44;;;;;;;8.20;7.63;;;2.80;99.90;;;;;;5023332;28;20473;-67
2020/12/28 00:14:10;;;;;;;8.37;7.77;;;2.80;99.90;;;;;;5033709;28;20472;-67
2020/12/28 00:16:36;;;;;;;8.40;7.80;;;2.90;99.90;;;;;;5015072;28;20512;-67
2020/12/28 00:19:04;;;;;;;8.07;7.37;;;2.90;99.90;;;;;;5014029;28;20457;-68
2020/12/28 00:21:30;;;;;;;8.83;8.03;;;2.90;99.90;;;;;;5013382;28;20829;-68
2020/12/28 00:23:56;;;;;;;8.70;8.10;;;2.90;99.90;;;;;;5022933;28;20507;-68
2020/12/28 00:26:24;;;;;;;8.20;7.50;;;2.90;99.90;;;;;;5020658;28;20477;-67
2020/12/28 00:28:50;;;;;;;8.17;7.57;;;2.90;99.90;;;;;;5012989;28;20489;-67
2020/12/28 00:31:17;;;;;;;8.03;7.43;;;3.00;99.90;;;;;;5013317;28;20474;-67
2020/12/28 00:33:44;;;;;;;8.20;7.60;;;3.00;99.90;;;;;;5012963;28;20855;-67
2020/12/28 00:36:15;;;;;;;7.33;6.83;;;3.00;99.90;;;;;;5014118;28;20469;-67
2020/12/28 00:38:42;;;;;;;7.50;6.90;;;3.00;99.90;;;;;;5014230;28;20437;-68
2020/12/28 00:41:11;;;;;;;7.40;6.90;;;3.00;99.90;;;;;;5005636;28;20466;-68
2020/12/28 00:43:40;;;;;;;7.90;7.40;;;3.00;99.90;;;;;;5003330;28;20496;-67
2020/12/28 00:46:07;;;;;;;6.93;6.43;;;3.00;99.90;;;;;;5027680;28;20453;-68
2020/12/28 00:48:33;;;;;;;7.17;6.70;;;3.00;99.90;;;;;;5027739;28;20489;-68
2020/12/28 00:50:59;;;;;;;7.07;6.57;;;3.00;99.90;;;;;;5028317;28;20464;-68
2020/12/28 00:53:26;;;;;;;7.83;7.30;;;3.10;99.90;;;;;;5026856;28;20980;-68
2020/12/28 00:55:53;;;;;;;7.00;6.40;;;3.00;99.90;;;;;;5013084;28;20523;-68
2020/12/28 00:58:19;;;;;;;7.27;6.70;;;3.10;99.90;;;;;;5010461;28;20465;-68
2020/12/28 01:00:45;;;;;;;6.97;6.50;;;3.20;99.90;;;;;;5008923;28;20466;-68
2020/12/28 01:03:12;;;;;;;7.00;6.50;;;3.20;99.90;;;;;;5012706;28;20723;-68
2020/12/28 01:05:38;;;;;;;6.70;6.20;;;3.10;99.90;;;;;;5014372;28;20470;-69
2020/12/28 01:08:04;;;;;;;7.30;6.80;;;3.20;99.90;;;;;;5012340;28;20951;-69
2020/12/28 01:10:31;;;;;;;6.07;5.70;;;3.10;99.90;;;;;;5019114;28;20457;-69
2020/12/28 01:12:57;;;;;;;7.23;6.63;;;3.20;99.90;;;;;;5013927;28;20839;-68
2020/12/28 01:15:25;;;;;;;6.87;6.37;;;3.20;99.90;;;;;;5013461;28;20469;-69
2020/12/28 01:17:51;;;;;;;7.07;6.60;;;3.20;99.90;;;;;;5018221;28;20446;-69
2020/12/28 01:20:17;;;;;;;6.97;6.47;;;3.20;99.90;;;;;;5019754;28;20485;-68
2020/12/28 01:22:43;;;;;;;6.07;5.57;;;3.20;99.90;;;;;;5017585;28;20465;-68
2020/12/28 01:25:10;;;;;;;6.20;5.80;;;3.20;99.90;;;;;;5017756;28;20469;-68
2020/12/28 01:27:37;;;;;;;6.80;6.30;;;3.20;99.90;;;;;;5032634;28;20555;-68
2020/12/28 01:30:03;;;;;;;6.10;5.70;;;3.20;99.90;;;;;;5019930;28;20481;-68
2020/12/28 01:32:30;;;;;;;6.97;6.53;;;3.20;99.90;;;;;;5012714;28;20485;-68
2020/12/28 01:34:56;;;;;;;6.33;5.93;;;3.10;99.90;;;;;;5012201;28;20961;-68
2020/12/28 01:37:22;;;;;;;6.77;6.27;;;3.10;99.90;;;;;;5012971;28;20452;-68
2020/12/28 01:39:49;;;;;;;6.10;5.70;;;3.20;99.90;;;;;;5019521;28;20452;-67
2020/12/28 01:42:15;;;;;;;5.83;5.43;;;3.20;99.90;;;;;;5011801;28;20523;-68
2020/12/28 01:44:42;;;;;;;5.93;5.53;;;3.20;99.90;;;;;;5010486;28;20473;-68
2020/12/28 01:47:08;;;;;;;5.67;5.00;;;3.20;99.90;;;;;;5010949;28;20469;-68
2020/12/28 01:49:35;;;;;;;5.63;5.23;;;3.30;99.90;;;;;;5014109;28;20519;-68
2020/12/28 01:52:01;;;;;;;5.90;5.50;;;3.30;99.90;;;;;;5011012;28;20480;-68
2020/12/28 01:54:29;;;;;;;5.47;5.13;;;3.30;99.90;;;;;;5017137;28;20511;-68
2020/12/28 01:56:56;;;;;;;5.70;5.30;;;3.30;99.90;;;;;;5028711;28;20950;-68
2020/12/28 01:59:23;;;;;;;5.87;5.37;;;3.30;99.90;;;;;;5017236;28;20476;-68
2020/12/28 02:01:52;;;;;;;5.60;5.20;;;3.40;99.90;;;;;;5018019;28;20457;-68
2020/12/28 02:04:18;;;;;;;5.70;5.30;;;3.30;99.90;;;;;;5012080;28;20476;-68
2020/12/28 02:06:45;;;;;;;5.67;5.27;;;3.30;99.90;;;;;;5011957;28;20547;-68
2020/12/28 02:09:11;;;;;;;5.47;5.10;;;3.40;99.90;;;;;;5015456;28;20484;-68
2020/12/28 02:11:38;;;;;;;5.27;4.87;;;3.40;99.90;;;;;;5018954;28;20473;-68
2020/12/28 02:14:04;;;;;;;5.60;5.20;;;3.40;99.90;;;;;;5018573;28;21003;-68
2020/12/28 02:16:31;;;;;;;5.70;5.30;;;3.40;99.90;;;;;;5014247;28;20465;-68
2020/12/28 02:18:59;;;;;;;5.10;4.80;;;3.40;99.90;;;;;;5016386;28;20463;-68
2020/12/28 02:21:26;;;;;;;5.50;5.20;;;3.40;99.90;;;;;;5012820;28;20523;-68
2020/12/28 02:23:53;;;;;;;5.50;5.10;;;3.40;99.90;;;;;;5015812;28;20464;-68
2020/12/28 02:26:20;;;;;;;6.37;5.87;;;3.40;99.90;;;;;;5025666;28;20466;-68
2020/12/28 02:28:46;;;;;;;5.00;4.60;;;3.40;99.90;;;;;;5015217;28;20481;-68
2020/12/28 02:31:12;;;;;;;5.50;5.00;;;3.40;99.90;;;;;;5022753;28;20465;-68
2020/12/28 02:33:40;;;;;;;5.50;5.20;;;3.40;99.90;;;;;;5012917;28;20470;-66
2020/12/28 02:36:08;;;;;;;4.97;4.67;;;3.40;99.90;;;;;;5011213;28;20477;-67
2020/12/28 02:38:34;;;;;;;6.10;5.60;;;3.40;99.90;;;;;;5012632;28;20501;-67
2020/12/28 02:41:03;;;;;;;5.03;4.73;;;3.40;99.90;;;;;;5009354;28;20501;-68
2020/12/28 02:43:29;;;;;;;5.60;5.20;;;3.30;99.90;;;;;;5011798;28;20485;-67
2020/12/28 02:45:56;;;;;;;5.40;5.10;;;3.30;99.90;;;;;;5025948;28;20465;-67
2020/12/28 02:48:22;;;;;;;5.37;4.90;;;3.30;99.90;;;;;;5011594;28;20478;-67
2020/12/28 02:50:48;;;;;;;5.10;4.80;;;3.40;99.90;;;;;;5015321;28;20496;-67
2020/12/28 02:53:15;;;;;;;5.83;5.47;;;3.30;99.90;;;;;;5011325;28;20493;-67
2020/12/28 02:55:41;;;;;;;5.77;5.37;;;3.30;99.90;;;;;;5025580;28;20831;-67
2020/12/28 02:58:08;;;;;;;4.70;4.40;;;3.40;99.90;;;;;;5011972;28;20449;-67
2020/12/28 03:00:34;;;;;;;5.60;5.20;;;3.40;99.90;;;;;;5021454;28;20465;-67
2020/12/28 03:03:01;;;;;;;5.27;4.97;;;3.40;99.90;;;;;;5028068;28;20831;-67
2020/12/28 03:05:27;;;;;;;4.83;4.53;;;3.50;99.90;;;;;;5018000;28;20465;-67
2020/12/28 03:07:53;;;;;;;5.57;5.27;;;3.50;99.90;;;;;;5015141;28;20485;-67
2020/12/28 03:10:20;;;;;;;4.73;4.43;;;3.50;99.90;;;;;;5014073;28;20956;-67
2020/12/28 03:12:46;;;;;;;4.97;4.67;;;3.60;99.90;;;;;;5015384;28;20480;-67
2020/12/28 03:15:13;;;;;;;5.93;5.53;;;3.50;99.90;;;;;;5021467;28;20921;-67
2020/12/28 03:17:39;;;;;;;5.87;5.47;;;3.50;99.90;;;;;;5011706;28;20465;-67
2020/12/28 03:20:06;;;;;;;5.53;5.13;;;3.50;99.90;;;;;;5017485;28;20995;-67
2020/12/28 03:22:32;;;;;;;5.60;5.27;;;3.50;99.90;;;;;;5021560;28;20501;-67
2020/12/28 03:24:59;;;;;;;5.53;5.23;;;3.60;99.90;;;;;;5015310;28;20461;-67
2020/12/28 03:27:25;;;;;;;5.37;4.97;;;3.50;99.90;;;;;;5010298;28;20485;-67
2020/12/28 03:29:51;;;;;;;5.60;5.20;;;3.50;99.90;;;;;;5025048;28;20449;-67
2020/12/28 03:32:19;;;;;;;5.10;4.80;;;3.50;99.90;;;;;;5006514;28;20461;-68
2020/12/28 03:34:45;;;;;;;5.27;4.87;;;3.60;99.90;;;;;;5007337;28;20466;-67
2020/12/28 03:37:11;;;;;;;6.13;5.60;;;3.60;99.90;;;;;;5014994;28;20460;-67
2020/12/28 03:39:38;;;;;;;5.27;4.97;;;3.50;99.90;;;;;;5022188;28;20470;-67
2020/12/28 03:42:04;;;;;;;5.40;5.10;;;3.60;99.90;;;;;;5010721;28;21139;-67
2020/12/28 03:44:31;;;;;;;5.50;5.10;;;3.60;99.90;;;;;;5009259;28;20492;-67
2020/12/28 03:46:57;;;;;;;5.73;5.30;;;3.60;99.90;;;;;;5005530;28;20470;-67
2020/12/28 03:49:24;;;;;;;5.53;5.13;;;3.60;99.90;;;;;;5013472;28;21016;-67
2020/12/28 03:51:50;;;;;;;4.97;4.57;;;3.60;99.90;;;;;;5010661;28;20468;-67
2020/12/28 03:54:17;;;;;;;5.40;5.00;;;3.60;99.90;;;;;;5011881;28;20481;-67
2020/12/28 03:56:43;;;;;;;4.90;4.60;;;3.60;99.90;;;;;;5007710;28;20519;-67
2020/12/28 03:59:09;;;;;;;5.67;5.27;;;3.70;99.90;;;;;;5017201;28;20442;-68
2020/12/28 04:01:36;;;;;;;5.47;5.07;;;3.70;99.90;;;;;;5021780;28;20461;-67
2020/12/28 04:04:02;;;;;;;5.90;5.40;;;3.80;99.90;;;;;;5018061;28;20819;-68
2020/12/28 04:06:29;;;;;;;5.40;5.10;;;3.80;99.90;;;;;;5013776;28;20570;-67
2020/12/28 04:08:55;;;;;;;5.97;5.57;;;3.70;99.90;;;;;;5017619;28;20484;-68
2020/12/28 04:11:22;;;;;;;5.47;5.10;;;3.60;99.90;;;;;;5030458;28;20473;-68
2020/12/28 04:13:48;;;;;;;5.50;5.20;;;3.70;99.90;;;;;;5014163;28;21007;-68
2020/12/28 04:16:15;;;;;;;6.20;5.80;;;3.70;99.90;;;;;;5022047;28;20479;-68
2020/12/28 04:18:41;;;;;;;6.67;6.17;;;3.70;99.90;;;;;;5013989;28;20500;-67
2020/12/28 04:21:08;;;;;;;5.60;5.20;;;3.70;99.90;;;;;;5013311;28;20444;-68
2020/12/28 04:23:35;;;;;;;6.17;5.77;;;3.70;99.90;;;;;;5022270;28;20468;-67
2020/12/28 04:26:03;;;;;;;6.00;5.60;;;3.70;99.90;;;;;;5033774;28;20519;-68
2020/12/28 04:28:29;;;;;;;6.47;5.97;;;3.70;99.90;;;;;;5020379;28;20539;-68
2020/12/28 04:30:55;;;;;;;6.30;5.90;;;3.60;99.90;;;;;;5012034;28;20472;-68
2020/12/28 04:33:22;;;;;;;6.60;6.20;;;3.70;99.90;;;;;;5026323;28;20476;-68
2020/12/28 04:35:48;;;;;;;6.40;6.00;;;3.60;99.90;;;;;;5019187;28;20476;-68
2020/12/28 04:38:14;;;;;;;6.13;5.73;;;3.60;99.90;;;;;;5023378;28;20465;-68
2020/12/28 04:40:42;;;;;;;5.97;5.60;;;3.60;99.90;;;;;;5033512;28;20456;-68
2020/12/28 04:43:12;;;;;;;5.90;5.40;;;3.60;99.90;;;;;;5027703;28;20496;-68
2020/12/28 04:45:38;;;;;;;5.23;4.93;;;3.60;99.90;;;;;;5017501;28;20457;-68
2020/12/28 04:48:07;;;;;;;5.50;5.20;;;3.60;99.90;;;;;;5015721;28;20495;-68
2020/12/28 04:50:34;;;;;;;5.10;4.80;;;3.60;99.90;;;;;;5014167;28;20454;-68
2020/12/28 04:53:03;;;;;;;5.87;5.47;;;3.60;99.90;;;;;;5016082;28;20490;-67
2020/12/28 04:55:29;;;;;;;5.87;5.37;;;3.60;99.90;;;;;;5013447;28;20496;-68
2020/12/28 04:57:56;;;;;;;5.10;4.80;;;3.60;99.90;;;;;;5019327;28;20464;-68
2020/12/28 05:00:22;;;;;;;5.53;5.13;;;3.60;99.90;;;;;;5029793;28;20484;-67
2020/12/28 05:02:49;;;;;;;5.20;4.90;;;3.60;99.90;;;;;;5018360;28;20534;-67
2020/12/28 05:05:15;;;;;;;4.57;4.27;;;3.70;99.90;;;;;;5023614;28;20470;-67
2020/12/28 05:07:44;;;;;;;4.90;4.60;;;3.70;99.90;;;;;;5020613;28;20491;-67
2020/12/28 05:10:21;;;;;;;5.00;4.70;;;3.70;99.90;;;;;;5020936;28;20523;-67
2020/12/28 05:12:47;;;;;;;4.60;4.30;;;3.70;99.90;;;;;;5019643;28;20496;-67
2020/12/28 05:15:14;;;;;;;4.70;4.40;;;3.70;99.90;;;;;;5033088;28;20822;-67
2020/12/28 05:17:41;;;;;;;5.00;4.70;;;3.80;99.90;;;;;;5023742;28;21154;-67
2020/12/28 05:20:07;;;;;;;4.40;4.10;;;3.80;99.90;;;;;;5032988;28;20445;-67
2020/12/28 05:22:34;;;;;;;4.03;3.83;;;3.80;99.90;;;;;;5020609;28;20489;-68
2020/12/28 05:25:00;;;;;;;4.53;4.33;;;3.80;99.90;;;;;;5011275;28;20474;-68
2020/12/28 05:27:26;;;;;;;3.97;3.77;;;3.80;99.90;;;;;;5016194;28;20464;-67
2020/12/28 05:29:53;;;;;;;4.67;4.23;;;3.80;99.90;;;;;;5032597;28;20990;-68
2020/12/28 05:32:20;;;;;;;4.73;4.40;;;3.80;99.90;;;;;;5019875;28;20471;-68
2020/12/28 05:34:47;;;;;;;4.30;4.00;;;3.80;99.90;;;;;;5031141;28;20437;-67
2020/12/28 05:37:14;;;;;;;4.10;3.90;;;3.90;99.90;;;;;;5019140;28;20836;-67
2020/12/28 05:39:41;;;;;;;4.87;4.60;;;3.90;99.90;;;;;;5032418;28;20441;-68
2020/12/28 05:42:09;;;;;;;4.07;3.80;;;3.90;99.90;;;;;;5015207;28;20522;-67
2020/12/28 05:44:36;;;;;;;3.87;3.60;;;3.90;99.90;;;;;;5025607;28;20469;-67
2020/12/28 05:47:08;;;;;;;4.20;3.97;;;3.90;99.90;;;;;;5017589;28;20519;-67
2020/12/28 05:49:38;;;;;;;3.93;3.73;;;3.90;99.90;;;;;;5035546;28;20480;-67
2020/12/28 05:52:05;;;;;;;4.17;3.93;;;3.90;99.90;;;;;;5019839;28;20981;-68
2020/12/28 05:54:33;;;;;;;4.07;3.87;;;3.80;99.90;;;;;;5014201;28;20905;-67
2020/12/28 05:56:59;;;;;;;4.37;4.10;;;3.80;99.90;;;;;;5013278;28;20957;-67
2020/12/28 05:59:26;;;;;;;4.10;3.90;;;3.80;99.90;;;;;;5011803;28;20469;-67
2020/12/28 06:01:52;;;;;;;4.70;4.40;;;3.80;99.90;;;;;;5020031;28;20514;-67
2020/12/28 06:04:20;;;;;;;4.67;4.37;;;3.70;99.90;;;;;;5031890;28;20475;-67
2020/12/28 06:06:48;;;;;;;4.47;3.97;;;3.60;99.90;;;;;;5015115;28;20476;-68
2020/12/28 06:09:18;;;;;;;4.40;4.10;;;3.50;99.90;;;;;;5012567;28;21003;-68
2020/12/28 06:11:45;;;;;;;4.50;4.10;;;3.50;99.90;;;;;;5013608;28;20461;-68
2020/12/28 06:14:16;;;;;;;4.47;4.17;;;3.40;99.90;;;;;;5031841;28;20521;-68
2020/12/28 06:16:43;;;;;;;4.60;4.40;;;3.30;99.90;;;;;;5027797;28;20461;-68
2020/12/28 06:19:22;;;;;;;4.43;4.13;;;3.30;99.90;;;;;;5032308;28;20503;-68
2020/12/28 06:21:50;;;;;;;4.30;4.00;;;3.30;99.90;;;;;;5025303;28;20519;-68
2020/12/28 06:24:27;;;;;;;4.57;4.27;;;3.20;99.90;;;;;;5031702;28;20515;-68
2020/12/28 06:27:09;;;;;;;4.60;4.30;;;3.20;99.90;;;;;;5023182;28;20468;-68
2020/12/28 06:29:37;;;;;;;4.43;4.13;;;3.10;99.90;;;;;;5031723;28;20489;-68
2020/12/28 06:32:13;;;;;;;4.43;4.13;;;3.10;99.90;;;;;;5025185;28;21005;-68
2020/12/28 06:34:40;;;;;;;4.43;4.03;;;3.10;99.90;;;;;;5028048;28;20811;-68
2020/12/28 06:37:07;;;;;;;4.97;4.60;;;3.00;99.90;;;;;;5019487;28;20515;-68
2020/12/28 06:39:34;;;;;;;4.37;4.00;;;3.10;99.90;;;;;;5031114;28;20974;-68
2020/12/28 06:42:10;;;;;;;4.37;4.07;;;3.00;99.90;;;;;;5013341;28;20535;-68
2020/12/28 06:44:37;;;;;;;4.80;4.50;;;3.00;99.90;;;;;;5015072;28;20944;-67
2020/12/28 06:47:19;;;;;;;4.80;4.50;;;3.00;99.90;;;;;;5023074;28;20472;-68
2020/12/28 06:49:46;;;;;;;4.37;4.07;;;3.00;99.90;;;;;;5035764;28;20484;-67
2020/12/28 06:52:13;;;;;;;4.60;4.30;;;3.00;99.90;;;;;;5025277;28;20465;-67
2020/12/28 06:54:40;;;;;;;4.43;4.07;;;3.00;99.90;;;;;;5035345;28;20490;-68
2020/12/28 06:57:06;;;;;;;4.93;4.53;;;3.00;99.90;;;;;;5013582;28;20948;-68
2020/12/28 06:59:34;;;;;;;4.80;4.50;;;3.00;99.90;;;;;;5016501;28;20457;-68
2020/12/28 07:02:01;;;;;;;5.10;4.73;;;3.00;99.90;;;;;;5023101;28;20995;-67
2020/12/28 07:04:28;;;;;;;5.30;4.93;;;2.90;99.90;;;;;;5031521;28;20513;-68
2020/12/28 07:06:58;;;;;;;5.13;4.83;;;2.90;99.90;;;;;;5022152;28;20455;-68
2020/12/28 07:09:25;;;;;;;5.33;4.87;;;2.90;99.90;;;;;;5031993;28;20485;-68
2020/12/28 07:11:51;;;;;;;5.10;4.80;;;2.90;99.90;;;;;;5021276;28;20464;-68
2020/12/28 07:14:20;;;;;;;5.07;4.77;;;2.80;99.90;;;;;;5023525;28;20863;-68
2020/12/28 07:16:46;;;;;;;4.97;4.57;;;2.90;99.90;;;;;;5020506;28;20449;-68
2020/12/28 07:19:12;;;;;;;4.67;4.37;;;2.90;99.90;;;;;;5024381;28;20488;-68
2020/12/28 07:21:39;;;;;;;4.50;4.20;;;2.90;99.90;;;;;;5026382;28;20441;-68
2020/12/28 07:24:08;;;;;;;5.23;4.83;;;2.90;99.90;;;;;;5033939;28;20879;-67
2020/12/28 07:26:36;;;;;;;5.17;4.77;;;2.80;99.90;;;;;;5028621;28;20460;-67
2020/12/28 07:29:10;;;;;;;4.93;4.63;;;2.80;99.90;;;;;;5031507;28;20485;-68
2020/12/28 07:31:37;;;;;;;5.03;4.63;;;2.90;99.90;;;;;;5030396;28;20520;-67
2020/12/28 07:34:05;;;;;;;5.17;4.67;;;2.90;99.90;;;;;;5031467;28;20538;-67
2020/12/28 07:36:32;;;;;;;5.30;4.90;;;2.80;99.90;;;;;;5033219;28;20469;-70
2020/12/28 07:39:00;;;;;;;4.63;3.23;;;2.80;99.90;;;;;;5030944;28;20456;-70
2020/12/28 07:41:26;;;;;;;8.87;2.53;;;9.00;99.90;;;;;;5014417;28;20470;-68
2020/12/28 07:43:55;;;;;;;6.53;2.70;;;12.60;99.90;;;;;;5014577;28;20838;-68
2020/12/28 07:47:01;;;;;;;3.30;2.43;;;15.40;99.90;;;;;;5018208;28;20464;-66
2020/12/28 07:49:29;;;;;;;4.70;2.70;;;17.20;99.90;;;;;;5032827;28;20491;-67
2020/12/28 07:52:05;;;;;;;3.30;2.23;;;18.00;99.90;;;;;;5025254;28;20507;-66
2020/12/28 07:54:41;;;;;;;3.13;2.37;;;18.80;99.90;;;;;;5033972;28;20480;-66
2020/12/28 07:57:11;;;;;;;2.83;2.00;;;19.10;99.90;;;;;;5015324;28;20480;-66
2020/12/28 07:59:51;;;;;;;4.57;2.07;;;19.00;99.90;;;;;;5015648;28;20453;-66
2020/12/28 08:02:55;;;;;;;2.53;2.33;;;19.10;99.90;;;;;;5024006;28;20473;-66
2020/12/28 08:05:23;;;;;;;3.20;2.07;;;19.90;99.90;;;;;;5028113;28;20470;-66
2020/12/28 08:07:49;;;;;;;1.90;1.60;;;20.10;99.90;;;;;;5028083;28;20940;-66
2020/12/28 08:10:16;;;;;;;3.23;1.87;;;20.10;99.90;;;;;;5027578;28;20484;-66
2020/12/28 08:12:50;;;;;;;3.07;1.83;;;20.00;99.90;;;;;;5014233;28;20477;-66
2020/12/28 08:15:29;;;;;;;3.47;1.93;;;20.10;99.90;;;;;;5013424;28;20831;-66
2020/12/28 08:18:08;;;;;;;2.10;1.90;;;20.10;99.90;;;;;;5026885;28;20488;-66
2020/12/28 08:20:36;;;;;;;2.37;1.60;;;20.30;99.90;;;;;;5017603;28;20879;-66
2020/12/28 08:23:02;;;;;;;2.47;2.07;;;20.30;99.90;;;;;;5026245;28;20870;-68
2020/12/28 08:25:30;;;;;;;3.20;2.20;;;20.30;99.90;;;;;;5016102;28;20450;-68
2020/12/28 08:27:56;;;;;;;2.50;1.90;;;20.40;99.90;;;;;;5019869;28;20500;-66
2020/12/28 08:30:26;;;;;;;3.53;2.20;;;20.40;99.90;;;;;;5014101;28;20499;-66
2020/12/28 08:32:53;;;;;;;2.23;2.00;;;20.40;99.90;;;;;;5013737;28;20473;-66
2020/12/28 08:35:19;;;;;;;4.83;4.43;;;20.40;99.90;;;;;;5013050;28;20499;-66
2020/12/28 08:37:49;;;;;;;6.37;5.93;;;6.50;99.90;;;;;;5014247;28;20545;-65
2020/12/28 08:40:17;;;;;;;6.77;6.07;;;4.30;99.90;;;;;;5014168;28;20449;-65
2020/12/28 08:42:44;;;;;;;5.90;5.40;;;3.70;99.90;;;;;;5013048;28;20497;-66
2020/12/28 08:45:19;;;;;;;6.03;5.63;;;3.30;99.90;;;;;;5012271;28;20521;-66
2020/12/28 08:47:51;;;;;;;6.10;5.60;;;3.10;99.90;;;;;;5007410;28;20480;-66
2020/12/28 08:50:18;;;;;;;7.07;6.37;;;3.10;99.90;;;;;;5010712;28;20603;-65
2020/12/28 08:52:48;;;;;;;6.70;6.20;;;3.00;99.90;;;;;;5019658;28;20846;-66
2020/12/28 08:55:14;;;;;;;5.80;5.30;;;2.90;99.90;;;;;;5024600;28;20453;-66
2020/12/28 08:57:41;;;;;;;6.17;5.67;;;2.90;99.90;;;;;;5012307;28;20458;-66
2020/12/28 09:00:07;;;;;;;6.70;6.20;;;2.80;99.90;;;;;;5013576;28;20445;-66
2020/12/28 09:02:33;;;;;;;6.77;6.27;;;2.80;99.90;;;;;;5014775;28;20526;-67
2020/12/28 09:05:00;;;;;;;7.03;6.43;;;2.70;99.90;;;;;;5012868;28;20459;-66
2020/12/28 09:07:26;;;;;;;6.20;5.80;;;2.70;99.90;;;;;;5010775;28;20465;-66
2020/12/28 09:09:53;;;;;;;6.23;5.73;;;2.70;99.90;;;;;;5016914;28;20493;-67
2020/12/28 09:12:20;;;;;;;7.13;6.63;;;2.60;99.90;;;;;;5010567;28;20929;-67
2020/12/28 09:14:46;;;;;;;7.10;6.60;;;2.60;99.90;;;;;;5016893;28;20532;-66
2020/12/28 09:17:12;;;;;;;7.03;6.43;;;2.60;99.90;;;;;;5029234;28;20452;-67
2020/12/28 09:19:39;;;;;;;7.33;6.73;;;2.50;99.90;;;;;;5022086;28;20545;-67
2020/12/28 09:22:06;;;;;;;7.30;6.70;;;2.60;99.90;;;;;;5013321;28;20450;-67
2020/12/28 09:24:32;;;;;;;6.90;6.40;;;2.50;99.90;;;;;;5023139;28;20483;-66
2020/12/28 09:26:58;;;;;;;7.50;6.90;;;2.50;99.90;;;;;;5014341;28;20462;-66
2020/12/28 09:29:25;;;;;;;7.00;6.40;;;2.60;99.90;;;;;;5025308;28;20911;-66
2020/12/28 09:31:52;;;;;;;6.90;6.40;;;2.60;99.90;;;;;;5018256;28;20826;-68
2020/12/28 09:34:18;;;;;;;7.47;6.77;;;2.60;99.90;;;;;;5013698;28;20474;-69
2020/12/28 09:36:44;;;;;;;6.63;6.13;;;2.60;99.90;;;;;;5030958;28;20453;-68
2020/12/28 09:39:11;;;;;;;7.60;6.80;;;2.80;99.90;;;;;;5023628;28;20449;-70
2020/12/28 09:41:38;;;;;;;7.60;6.90;;;3.00;99.90;;;;;;5011459;28;20523;-69
2020/12/28 09:44:04;;;;;;;7.03;6.43;;;3.00;99.90;;;;;;5012363;28;20469;-68
2020/12/28 09:46:30;;;;;;;7.47;6.80;;;3.00;99.90;;;;;;5013462;28;20454;-69
2020/12/28 09:48:57;;;;;;;7.10;6.50;;;3.00;99.90;;;;;;5012349;28;20520;-69
2020/12/28 09:51:23;;;;;;;7.50;6.90;;;3.00;99.90;;;;;;5013222;28;20667;-67
2020/12/28 09:53:49;;;;;;;7.10;6.50;;;3.00;99.90;;;;;;5011887;28;20842;-67
2020/12/28 09:56:16;;;;;;;7.30;6.70;;;3.10;99.90;;;;;;5017127;28;20493;-67
2020/12/28 09:58:42;;;;;;;7.30;6.70;;;3.20;99.90;;;;;;5012809;28;20445;-68
2020/12/28 10:01:09;;;;;;;7.47;6.90;;;3.20;99.90;;;;;;5019256;28;20963;-66
2020/12/28 10:03:37;;;;;;;7.33;6.17;;;3.20;99.90;;;;;;5029240;28;20473;-67
2020/12/28 10:06:31;;;;;;;6.80;6.30;;;3.50;99.90;;;;;;5019134;28;20485;-74
2020/12/28 10:08:50;;;;;;;7.23;6.63;;;3.50;99.90;;;;;;5013562;28;20516;-72
2020/12/28 10:11:17;;;;;;;7.00;6.40;;;3.50;99.90;;;;;;5012330;28;20529;-73
2020/12/28 10:13:44;;;;;;;7.30;6.70;;;3.50;99.90;;;;;;5012077;28;20469;-74
2020/12/28 10:16:10;;;;;;;7.80;7.10;;;3.60;99.90;;;;;;5014980;28;20461;-73
2020/12/28 10:18:41;;;;;;;7.30;6.60;;;3.80;99.90;;;;;;5015398;28;20848;-73
2020/12/28 10:21:09;;;;;;;6.70;6.20;;;4.00;99.90;;;;;;5027867;28;20589;-73
2020/12/28 10:23:35;;;;;;;6.77;6.27;;;4.60;99.90;;;;;;5028174;28;20644;-74
2020/12/28 10:26:04;;;;;;;6.50;6.00;;;5.10;99.90;;;;;;5016863;28;20492;-74
2020/12/28 10:28:31;;;;;;;6.53;5.97;;;6.60;99.90;;;;;;5013232;28;20477;-74
2020/12/28 10:30:58;;;;;;;5.70;5.20;;;8.40;99.90;;;;;;5011539;28;20449;-74
2020/12/28 10:33:24;;;;;;;6.87;6.17;;;8.10;99.90;;;;;;5020032;28;20593;-67
2020/12/28 10:35:50;;;;;;;5.90;5.40;;;8.50;99.90;;;;;;5014309;28;20461;-73
2020/12/28 10:38:17;;;;;;;5.10;4.73;;;9.70;99.90;;;;;;5016429;28;20460;-73
2020/12/28 10:40:43;;;;;;;6.87;4.90;;;10.80;99.90;;;;;;5012567;28;20456;-74
2020/12/28 10:43:09;;;;;;;5.87;5.37;;;10.80;99.90;;;;;;5038876;28;20480;-74
2020/12/28 10:45:36;;;;;;;6.23;5.60;;;9.70;99.90;;;;;;5020924;28;20536;-74
2020/12/28 10:48:03;;;;;;;6.13;5.63;;;7.90;99.90;;;;;;5023120;28;20454;-72
2020/12/28 10:50:29;;;;;;;6.90;6.40;;;6.60;99.90;;;;;;5021026;28;20513;-73
2020/12/28 10:52:55;;;;;;;8.23;7.63;;;6.10;99.90;;;;;;5038144;23;20500;-70
2020/12/28 10:55:22;;;;;;;7.20;6.60;;;5.50;99.90;;;;;;5013394;28;20456;-69
2020/12/28 10:57:49;;;;;;;7.47;6.87;;;5.20;99.90;;;;;;5001271;28;20453;-68
2020/12/28 11:00:15;;;;;;;6.97;6.43;;;4.70;99.90;;;;;;5007103;28;21051;-68
2020/12/28 11:02:42;;;;;;;7.70;7.10;;;4.80;99.90;;;;;;5008255;28;20473;-69
2020/12/28 11:05:08;;;;;;;7.73;7.13;;;4.50;99.90;;;;;;5009918;28;20627;-69
2020/12/28 11:07:35;;;;;;;8.10;7.40;;;4.50;99.90;;;;;;5008024;28;20482;-68
2020/12/28 11:10:01;;;;;;;7.57;6.90;;;4.30;99.90;;;;;;5011355;28;20485;-69
2020/12/28 11:12:27;;;;;;;7.90;7.30;;;4.30;99.90;;;;;;5007944;28;20521;-68
2020/12/28 11:14:54;;;;;;;7.60;7.03;;;4.30;99.90;;;;;;5009474;28;20841;-68
2020/12/28 11:17:20;;;;;;;7.80;7.00;;;4.40;99.90;;;;;;5009568;28;20456;-69
2020/12/28 11:19:47;;;;;;;11.40;7.73;;;4.30;99.90;;;;;;5011175;28;20450;-68
2020/12/28 11:22:13;;;;;;;7.70;7.10;;;4.30;99.90;;;;;;5004838;28;20478;-67
2020/12/28 11:24:39;;;;;;;7.80;7.10;;;4.40;99.90;;;;;;4991862;28;20446;-69
2020/12/28 11:27:06;;;;;;;8.00;7.30;;;4.40;99.90;;;;;;4996884;28;20525;-68
2020/12/28 11:29:32;;;;;;;7.57;7.00;;;4.30;99.90;;;;;;5014052;28;20481;-69
2020/12/28 11:31:58;;;;;;;7.93;7.33;;;4.20;99.90;;;;;;5013456;28;20978;-69
2020/12/28 11:34:24;;;;;;;8.20;7.60;;;4.20;99.90;;;;;;5005013;28;20839;-69
2020/12/28 11:36:52;;;;;;;8.10;7.33;;;4.20;99.90;;;;;;5014449;28;20476;-68
2020/12/28 11:39:18;;;;;;;8.40;7.60;;;4.50;99.90;;;;;;5014162;28;20816;-68
2020/12/28 11:41:44;;;;;;;7.10;6.60;;;4.70;99.90;;;;;;5011056;28;20485;-69
2020/12/28 11:44:12;;;;;;;7.50;6.90;;;4.80;99.90;;;;;;4999274;28;20890;-68
2020/12/28 11:46:38;;;;;;;6.90;6.40;;;4.90;99.90;;;;;;5005145;28;20465;-68
2020/12/28 11:49:05;;;;;;;7.37;6.77;;;4.90;99.90;;;;;;4997630;28;20517;-69
2020/12/28 11:51:31;;;;;;;8.10;7.50;;;4.80;99.90;;;;;;5010400;28;20481;-69
2020/12/28 11:53:58;;;;;;;7.73;7.07;;;4.70;99.90;;;;;;4998826;28;20458;-69
2020/12/28 11:56:25;;;;;;;8.10;7.30;;;4.70;99.90;;;;;;4998610;28;20442;-69
2020/12/28 11:58:51;;;;;;;7.70;7.10;;;4.60;99.90;;;;;;5007482;28;20454;-68
2020/12/28 12:01:18;;;;;;;8.20;7.50;;;4.50;99.90;;;;;;5006475;28;20536;-69
2020/12/28 12:03:47;;;;;;;7.83;7.20;;;4.50;99.90;;;;;;4996977;28;20459;-68
2020/12/28 12:06:15;;;;;;;8.20;7.53;;;4.40;99.90;;;;;;5005024;28;20462;-68
2020/12/28 12:09:09;;;;;;;8.17;7.60;;;4.30;99.90;;;;;;5006765;28;21023;-70
2020/12/28 12:11:30;;;;;;;8.97;8.20;;;4.30;99.90;;;;;;5008392;28;20478;-70
2020/12/28 12:13:56;;;;;;;8.27;7.63;;;4.20;99.90;;;;;;5005066;28;20475;-68
2020/12/28 12:16:23;;;;;;;8.10;7.50;;;4.30;99.90;;;;;;5013720;28;20449;-67
2020/12/28 12:18:49;;;;;;;7.90;7.20;;;4.30;99.90;;;;;;5000230;28;20447;-71
2020/12/28 12:21:16;;;;;;;8.40;7.80;;;4.40;99.90;;;;;;5001129;28;20459;-68
2020/12/28 12:23:42;;;;;;;8.23;7.40;;;4.40;99.90;;;;;;5012068;28;20458;-69
2020/12/28 12:26:08;;;;;;;8.10;7.50;;;4.40;99.90;;;;;;5004221;28;20462;-66
2020/12/28 12:28:36;;;;;;;7.83;7.00;;;4.40;99.90;;;;;;5006870;28;20488;-67
2020/12/28 12:31:03;;;;;;;7.40;6.90;;;4.50;99.90;;;;;;4996164;28;20458;-66
2020/12/28 12:33:29;;;;;;;7.47;6.87;;;4.50;99.90;;;;;;4994232;28;20446;-65
2020/12/28 12:35:56;;;;;;;9.63;8.43;;;4.50;99.90;;;;;;4994670;28;20473;-69
2020/12/28 12:38:22;;;;;;;8.60;7.90;;;4.50;99.90;;;;;;4993980;28;20960;-69
2020/12/28 12:40:48;;;;;;;8.67;7.97;;;4.60;99.90;;;;;;4993803;28;20455;-67
2020/12/28 12:43:15;;;;;;;7.67;7.07;;;4.60;99.90;;;;;;5000786;28;20474;-69
2020/12/28 12:45:42;;;;;;;8.97;8.27;;;4.70;99.90;;;;;;5003424;28;20485;-68
2020/12/28 12:48:08;;;;;;;7.80;7.30;;;4.70;99.90;;;;;;4997900;28;20462;-69
2020/12/28 12:50:34;;;;;;;8.27;7.67;;;4.70;99.90;;;;;;4994891;28;20541;-68
2020/12/28 12:53:01;;;;;;;7.90;7.20;;;4.60;99.90;;;;;;4994771;28;20486;-68
2020/12/28 12:55:27;;;;;;;8.00;7.40;;;4.60;99.90;;;;;;4997458;28;20461;-67
2020/12/28 12:57:53;;;;;;;7.93;7.23;;;4.60;99.90;;;;;;5003301;28;21069;-69